AirNav   Duncan Aviation - Near you to keep you flying
 
 1130 users online  

5W4 P K Airpark
Raeford, North Carolina, USA

GOING TO RAEFORD?


FAA INFORMATION EFFECTIVE 26 JANUARY 2023

Location

FAA Identifier: 5W4
Lat/Long: 35-01-11.4950N 079-11-27.6140W
35-01.191583N 079-11.460233W
35.0198597,-79.1910039
(estimated)
Elevation: 304 ft. / 92.7 m (surveyed)
Variation: 09W (2020)
From city: 3 miles NE of RAEFORD, NC
Time zone: UTC -5 (UTC -4 during Daylight Saving Time)
Zip code: 28376

Airport Operations

Airport use: Open to the public
Activation date: 05/1964
Control tower: no
ARTCC: WASHINGTON CENTER
FSS: RALEIGH FLIGHT SERVICE STATION
NOTAMs facility: RDU (NOTAM-D service available)
Attendance: 0830-DUSK
Wind indicator: lighted
Segmented circle: yes
Beacon: white-green (lighted land airport)
Operates sunset to sunrise.

Airport Communications

CTAF/UNICOM: 123.0
FAYETTEVILLE APPROACH: 127.8
FAYETTEVILLE DEPARTURE: 127.8
WX ASOS at HFF (15 nm W): 141.25 (910-396-7804)
WX ASOS at FAY (15 nm E): 121.25 (910-484-1546)
WX ASOS at MEB (16 nm SW): 134.125 (910-844-5338)
WX AWOS-3PT at SOP (16 nm NW): 127.575 (910-692-4287)

Nearby radio navigation aids

VOR radial/distance  VOR name  Freq  Var
FAYr282/15.7FAYETTEVILLE VOR/DME114.8504W
SDZr124/22.7SANDHILLS VORTAC111.8003W

 
NDB name  Hdg/Dist  Freq  Var  ID
DILLON023/35.327409WDLC -.. .-.. -.-.
HARNETT234/35.441708WHQT .... --.- -
BENNETTSVILLE056/35.923008WBES -... . ...

Airport Services

Fuel available: 100LL JET-A+
Parking: tiedowns
Airframe service: NONE
Powerplant service: NONE
Bottled oxygen: NONE
Bulk oxygen: NONE

Runway Information

Runway 4/22

Dimensions: 3402 x 60 ft. / 1037 x 18 m
Surface: asphalt, in good condition
Weight bearing capacity: 
Single wheel: 30.0
Runway edge lights: medium intensity
RUNWAY 4  RUNWAY 22
Latitude: 35-00.956983N35-01.426050N
Longitude: 079-11.647300W079-11.273650W
Elevation: 292.0 ft.304.0 ft.
Traffic pattern: leftright
Runway heading: 042 magnetic, 033 true222 magnetic, 213 true
Markings: nonprecision, in good conditionnonprecision, in good condition
Touchdown point: yes, no lightsyes, no lights
Obstructions: 63 ft. trees, 631 ft. from runway, 66 ft. right of centerline, 6:1 slope to clear41 ft. trees, 615 ft. from runway, 42 ft. left of centerline, 10:1 slope to clear
HAS 15 FT BRUSH 0-200 FT FM THR OFFSET 121 FT R OF CNTRLN.

Airport Ownership and Management from official FAA records

Ownership: Privately-owned
Owner: BILLIE THACKER
PO DRAWER 1510
RAEFORD, NC 28376
Phone 910-875-3261
Manager: JOEY D'ANNUNZIO
155 AIRPORT DRIVE
RAEFORD, NC 28376
Phone (910) 904-0000

Airport Operational Statistics

Aircraft based on the field: 8
Single engine airplanes: 2
Multi engine airplanes: 6
    
Aircraft operations: avg 64/day *
77% local general aviation
21% military
2% transient general aviation
* for 12-month period ending 29 July 2022

Additional Remarks

CAUTION: LOW FLYING MIL ACFT IN AREA; ARPT LCTD WITHIN AN MOA.
FRQ PRCHT ACT TO TARGET 300 FT SE OF TERMINAL APRON.
ACFT IN VICINITY MONITOR 123.5.
FLY ONE MILE DOWN WIND LEG TO PREVENT CONFLICTS WITH PAJA (DROP ZONE SOUTHEAST FROM RWY).
AFTER HOURS SVC 910-578-4401.
MONITOR FREQ 123.5 FOR PAJA.
FOR CD CTC WASHINGTON ARTCC AT 703-771-3587.
CTN DO NOT OVERFLY AIRPORT DUE TO PAJA.

Instrument Procedures

NOTE: All procedures below are presented as PDF files. If you need a reader for these files, you should download the free Adobe Reader.

NOT FOR NAVIGATION. Please procure official charts for flight.
FAA instrument procedures published for use from 26 January 2023 at 0901Z to 23 February 2023 at 0900z.

 
IAPs - Instrument Approach Procedures
RNAV (GPS)-A   download
VOR-A   download
NOTE: Special Take-Off Minimums/Departure Procedures apply   download (141KB)

Other nearby airports with instrument procedures:

KPOB - Pope Army Airfield (13 nm NE)
KFBG - Simmons Army Airfield (14 nm NE)
KHFF - Mackall Army Airfield (15 nm W)
KFAY - Fayetteville Regional Airport/Grannis Field (15 nm E)
KMEB - Laurinburg/Maxton Airport (16 nm SW)
KSOP - Moore County Airport (16 nm NW)
 
Loc | Ops | Rwys | IFR | FBO | Links
Com | Nav | Svcs | Stats | Notes
Area around 5W4 (P K Airpark)
 
Road maps at: MapQuest Bing Google
 
Aerial photo
WARNING: Photo may not be current or correct
Aerial photo of 5W4 (P K Airpark)
Photo by Kelvin Draughon
Photo taken 25-Dec-2016
looking northeast.

Do you have a better or more recent aerial photo of P K Airpark that you would like to share? If so, please send us your photo.

 
Sectional chart

 
Airport distance calculator
Flying to P K Airpark? Find the distance to fly.

From to 5W4

Sunrise and sunset
Times for 02-Feb-2023
 Local
(UTC-5)
 Zulu
(UTC)
Morning civil twilight06:4911:49
Sunrise07:1612:16
Sunset17:4522:45
Evening civil twilight18:1223:12

Current date and time
Zulu (UTC)  02-Feb-2023 23:53:52
Local (UTC-5)  02-Feb-2023 18:53:52
 
METAR
KPOB 
12nm NE 
022325Z AUTO 00000KT 10SM -RA OVC005 05/05 A3010 RMK AO2 DZB05E08RAB08 SLP197
KFBG 
15nm NE 
022317Z AUTO 00000KT 10SM -RA OVC005 05/05 A3009 RMK AO2 RAE2258RAB17 SLP194 $
KHFF 
15nm W 
022330Z AUTO 00000KT 10SM -RA OVC007 06/06 A3009 RMK AO2 SLP194
KFAY 
15nm E 
022253Z 00000KT 10SM OVC005 05/04 A3011 RMK AO2 RAE2156B35E51 CIG 004V007 SLP191 P0000 T00500044
KSOP 
16nm NW 
022256Z AUTO 00000KT 10SM -RA OVC006 06/06 A3010 RMK AO2 SLP201 P0001 T00560056 TSNO
KMEB 
17nm SW 
022325Z AUTO 00000KT 10SM -RA SCT008 BKN015 OVC036 09/05 A3011 RMK AO2 RAB09 P0001 T00940050
TAF
KPOB 
12nm NE 
021800Z 0218/0324 05005KT 4800 -RA BR SCT003 OVC005 QNH3007INS BECMG 0301/0302 27005KT 4800 -RA BR OVC004 QNH3000INS BECMG 0308/0309 34008KT 8000 -RA BR SCT003 BKN012 OVC050 QNH3000INS BECMG 0311/0312 34010G15KT 9999 NSW FEW012 SCT050 BKN100 OVC150 QNH3006INS BECMG 0314/0315 34012G20KT 9999 FEW030 BKN150 BKN190 QNH3016INS BECMG 0322/0323 36007KT 9999 SKC QNH3029INS TX06/0220Z TN01/0312Z
KFBG 
15nm NE 
021800Z 0218/0324 VRB02KT 4800 -RA BR OVC004 QNH3009INS TEMPO 0319/0322 OVC008 BECMG 0300/0301 24006KT 3200 RA BR OVC003 QNH3002INS TEMPO 0303/0307 1000 +RA BR VV001 BECMG 0308/0309 27010KT 9999 NSW SCT008 OVC030 QNH3001INS BECMG 0311/0312 35010G18KT 9999 SCT050 BKN060 OVC080 QNH3011INS BECMG 0314/0315 35012G20KT 9999 BKN150 QNH3018INS BECMG 0321/0322 35012KT SKC QNH3024INS TX06/0220Z TN04/0310Z
KFAY 
15nm E 
021735Z 0218/0318 08005KT 4SM -RA OVC006 FM030000 VRB03KT 2SM -RA BR OVC003 FM030900 VRB03KT 3SM -RA BR OVC003 FM031200 31006KT 4SM -RA BR OVC010 FM031500 33010G18KT P6SM SCT030 SCT250
NOTAMs
Click for the latest NOTAMs
NOTAMs are issued by the DoD/FAA and will open in a separate window not controlled by AirNav.

 

 
 

FBO, Fuel Providers, and Aircraft Ground Support

  
 Business Name 
 
 Contact 
 
 Services / Description 
 
Fuel Prices
 
Comments
  
Skydive Paraclete XP 910-904-0000
no information available

If you are affiliated with Skydive Paraclete XP and would like to show here your services, contact info, web link, logo, and more, click here
100LL Jet A
FS $5.00 $5.00 
 Updated 12-Jan-2023
 
   write
FS=Full service
Update Fuel Prices
 

Aviation Businesses, Services, and Facilities

  
 Business Name 
 
 Contact 
 
 Services / Description 
 
Distance
 
Comments
  
Raeford Aviation 910-875-3261
no information available

If you are affiliated with Raeford Aviation and would like to show here your services, contact info, web link, logo, and more, click here
on airport  
   write
 

Where to Eat: Catering, Restaurants, Food shops

  
 Business Name 
 
 Contact 
 
 Services / Description 
 
Distance
 
Comments
  
Aviators Grill & Pub 910-904-6761
no information available

If you are affiliated with Aviators Grill & Pub and would like to show here your services, contact info, web link, logo, and more, click here
on airport  
   write
 

Would you like to see your business listed on this page?

 If your business provides an interesting product or service to pilots, flight crews, aircraft, or users of the P K Airpark, you should consider listing it here.  To start the listing process, click on the button below
 
Add a business
 

Other Pages about P K Airpark

Update a link
 
Copyright © AirNav, LLC. All rights reserved. Privacy Policy  Contact